Time;durP1;ratioP1;P1;durP2;ratioP2;P2;SDS_P1;SDS_P2;PMS_P1;PMS_P2;Temp;Humidity;BMP_temperature;BMP_pressure;BME280_temperature;BME280_humidity;BME280_pressure;Samples;Min_cycle;Max_cycle;Signal;HPM_P1;HPM_P2
2023/06/19 00:02:22;;;;;;;;;;;20.00;59.80;;;;;;6243830;23;19908;-80
2023/06/19 00:04:48;;;;;;;;;;;20.00;60.10;;;;;;6244467;23;19942;-79
2023/06/19 00:07:14;;;;;;;;;;;20.00;60.10;;;;;;6218551;23;19907;-80
2023/06/19 00:09:40;;;;;;;;;;;19.90;60.00;;;;;;6219152;23;19937;-77
2023/06/19 00:12:06;;;;;;;;;;;19.90;59.80;;;;;;6243966;23;19986;-78
2023/06/19 00:14:32;;;;;;;;;;;19.90;59.10;;;;;;6244422;22;19919;-80
2023/06/19 00:17:00;;;;;;;;;;;19.90;59.90;;;;;;6218627;23;19908;-77
2023/06/19 00:19:26;;;;;;;;;;;19.80;59.90;;;;;;6219666;23;19915;-80
2023/06/19 00:21:56;;;;;;;;;;;19.80;60.10;;;;;;6245772;22;20261;-80
2023/06/19 00:24:23;;;;;;;;;;;19.80;60.00;;;;;;6244430;23;19970;-77
2023/06/19 00:26:49;;;;;;;;;;;19.70;60.20;;;;;;6243957;23;19912;-80
2023/06/19 00:29:15;;;;;;;;;;;19.70;60.50;;;;;;6245904;22;19908;-77
2023/06/19 00:31:41;;;;;;;;;;;19.60;59.80;;;;;;6243939;23;20254;-79
2023/06/19 00:34:07;;;;;;;;;;;19.60;60.40;;;;;;6219027;23;19914;-80
2023/06/19 00:36:40;;;;;;;;;;;19.60;60.50;;;;;;6243919;23;20273;-78
2023/06/19 00:39:08;;;;;;;;;;;19.60;60.80;;;;;;6220457;23;19911;-80
2023/06/19 00:41:35;;;;;;;;;;;19.50;60.70;;;;;;6243972;23;20033;-80
2023/06/19 00:44:01;;;;;;;;;;;19.40;60.50;;;;;;6245593;22;19907;-78
2023/06/19 00:46:27;;;;;;;;;;;19.40;60.80;;;;;;6221554;23;19911;-81
2023/06/19 00:48:53;;;;;;;;;;;19.40;61.00;;;;;;6244307;23;19934;-78
2023/06/19 00:51:19;;;;;;;;;;;19.30;60.90;;;;;;6218964;23;19916;-81
2023/06/19 00:53:45;;;;;;;;;;;19.30;61.00;;;;;;6244295;23;20236;-81
2023/06/19 00:56:11;;;;;;;;;;;19.30;61.50;;;;;;6244187;22;20240;-78
2023/06/19 00:58:38;;;;;;;;;;;19.30;61.60;;;;;;6244337;23;19954;-78
2023/06/19 01:03:56;;;;;;;;;;;19.20;61.40;;;;;;6247182;23;19907;-81
2023/06/19 01:06:29;;;;;;;;;;;19.20;61.20;;;;;;6195108;23;20355;-78
2023/06/19 01:09:02;;;;;;;;;;;19.20;60.70;;;;;;6246198;23;20222;-81
2023/06/19 01:11:33;;;;;;;;;;;19.10;60.90;;;;;;6220390;23;19915;-78
2023/06/19 01:14:22;;;;;;;;;;;19.00;60.90;;;;;;6220871;22;19935;-81
2023/06/19 01:16:48;;;;;;;;;;;18.90;61.00;;;;;;6247178;23;19908;-78
2023/06/19 01:19:19;;;;;;;;;;;18.80;60.50;;;;;;6245999;23;19914;-79
2023/06/19 01:21:46;;;;;;;;;;;18.80;61.10;;;;;;6245760;23;19994;-78
2023/06/19 01:24:13;;;;;;;;;;;18.80;61.00;;;;;;6245860;22;19966;-78
2023/06/19 01:26:39;;;;;;;;;;;18.70;61.10;;;;;;6246998;23;19962;-77
2023/06/19 01:29:05;;;;;;;;;;;18.70;61.10;;;;;;6220768;23;20305;-78
2023/06/19 01:32:09;;;;;;;;;;;18.60;60.50;;;;;;6220550;23;19907;-82
2023/06/19 01:34:36;;;;;;;;;;;18.60;61.10;;;;;;6245896;23;20352;-82
2023/06/19 01:37:05;;;;;;;;;;;18.60;61.10;;;;;;6245470;23;19912;-77
2023/06/19 01:39:32;;;;;;;;;;;18.60;61.10;;;;;;6246068;23;19919;-82
2023/06/19 01:41:58;;;;;;;;;;;18.50;61.30;;;;;;6220069;23;19931;-78
2023/06/19 01:44:24;;;;;;;;;;;18.50;61.40;;;;;;6220591;23;19923;-78
2023/06/19 01:46:50;;;;;;;;;;;18.40;60.70;;;;;;6224716;22;19911;-78
2023/06/19 01:49:17;;;;;;;;;;;18.40;61.30;;;;;;6251261;22;19911;-82
2023/06/19 01:51:43;;;;;;;;;;;18.30;61.50;;;;;;6277534;22;19957;-82
2023/06/19 01:54:08;;;;;;;;;;;18.20;61.60;;;;;;6278208;22;20241;-82
2023/06/19 01:56:35;;;;;;;;;;;18.20;61.70;;;;;;6250550;22;20222;-82
2023/06/19 01:59:01;;;;;;;;;;;18.10;61.70;;;;;;6250822;22;19953;-78
2023/06/19 02:01:27;;;;;;;;;;;18.10;61.90;;;;;;6250620;22;19942;-78
2023/06/19 02:03:53;;;;;;;;;;;18.10;62.00;;;;;;6251032;22;19911;-78
2023/06/19 02:06:21;;;;;;;;;;;18.00;61.80;;;;;;6250403;22;20325;-78
2023/06/19 02:08:48;;;;;;;;;;;18.00;62.00;;;;;;6277831;22;19911;-81
2023/06/19 02:11:14;;;;;;;;;;;17.90;61.80;;;;;;6251093;22;20317;-78
2023/06/19 02:13:41;;;;;;;;;;;17.80;61.80;;;;;;6250547;22;20327;-83
2023/06/19 02:16:07;;;;;;;;;;;17.80;61.30;;;;;;6224718;22;19915;-78
2023/06/19 02:18:32;;;;;;;;;;;17.80;62.10;;;;;;6251043;22;20283;-80
2023/06/19 02:20:58;;;;;;;;;;;17.80;62.00;;;;;;6225208;22;19915;-80
2023/06/19 02:23:24;;;;;;;;;;;17.80;62.00;;;;;;6277522;22;19907;-79
2023/06/19 02:25:50;;;;;;;;;;;17.80;61.30;;;;;;6250226;22;19911;-83
2023/06/19 02:28:16;;;;;;;;;;;17.80;62.10;;;;;;6250435;22;19966;-78
2023/06/19 02:30:42;;;;;;;;;;;17.80;62.30;;;;;;6250199;22;20227;-78
2023/06/19 02:33:08;;;;;;;;;;;17.90;62.50;;;;;;6250259;22;20264;-78
2023/06/19 02:35:34;;;;;;;;;;;17.80;62.60;;;;;;6277667;22;19957;-83
2023/06/19 02:38:00;;;;;;;;;;;17.70;62.50;;;;;;6250632;22;19911;-83
2023/06/19 02:40:26;;;;;;;;;;;17.70;62.60;;;;;;6277537;22;20382;-79
2023/06/19 02:42:52;;;;;;;;;;;17.70;62.70;;;;;;6250374;22;19922;-79
2023/06/19 02:45:18;;;;;;;;;;;17.70;62.90;;;;;;6250450;22;19917;-79
2023/06/19 02:47:44;;;;;;;;;;;17.70;62.60;;;;;;6277313;22;19941;-78
2023/06/19 02:50:10;;;;;;;;;;;17.70;62.40;;;;;;6224699;22;20370;-78
2023/06/19 02:52:36;;;;;;;;;;;17.70;62.50;;;;;;6225301;22;19907;-79
2023/06/19 02:55:02;;;;;;;;;;;17.60;62.50;;;;;;6225117;22;19919;-83
2023/06/19 02:57:28;;;;;;;;;;;17.50;62.80;;;;;;6249916;22;19929;-79
2023/06/19 02:59:54;;;;;;;;;;;17.50;62.90;;;;;;6250215;22;19916;-78
2023/06/19 03:02:20;;;;;;;;;;;17.50;63.00;;;;;;6250070;22;19990;-83
2023/06/19 03:04:46;;;;;;;;;;;17.50;63.00;;;;;;6250394;22;20312;-83
2023/06/19 03:07:13;;;;;;;;;;;17.50;62.80;;;;;;6249993;22;20332;-79
2023/06/19 03:09:59;;;;;;;;;;;17.50;62.90;;;;;;6225370;22;19997;-79
2023/06/19 03:12:25;;;;;;;;;;;17.50;62.70;;;;;;6249683;22;20279;-83
2023/06/19 03:14:51;;;;;;;;;;;17.50;62.80;;;;;;6277387;22;19915;-83
2023/06/19 03:17:17;;;;;;;;;;;17.50;62.90;;;;;;6249854;22;19913;-83
2023/06/19 03:19:43;;;;;;;;;;;17.50;62.90;;;;;;6250423;22;19915;-79
2023/06/19 03:22:09;;;;;;;;;;;17.50;63.00;;;;;;6249734;22;19907;-84
2023/06/19 03:24:35;;;;;;;;;;;17.40;62.90;;;;;;6224968;22;19961;-83
2023/06/19 03:27:01;;;;;;;;;;;17.40;62.90;;;;;;6276545;22;19955;-83
2023/06/19 03:29:27;;;;;;;;;;;17.40;63.30;;;;;;6250228;22;19918;-79
2023/06/19 03:31:53;;;;;;;;;;;17.30;63.20;;;;;;6249935;22;19911;-84
2023/06/19 03:34:19;;;;;;;;;;;17.20;63.20;;;;;;6225232;22;20359;-84
2023/06/19 03:36:45;;;;;;;;;;;17.20;63.50;;;;;;6276516;22;19913;-84
2023/06/19 03:39:11;;;;;;;;;;;17.10;63.40;;;;;;6277236;22;19953;-78
2023/06/19 03:41:37;;;;;;;;;;;17.10;63.30;;;;;;6249761;22;19952;-83
2023/06/19 03:44:03;;;;;;;;;;;17.20;63.10;;;;;;6250035;22;20094;-84
2023/06/19 03:46:29;;;;;;;;;;;17.20;62.30;;;;;;6244432;23;19912;-84
2023/06/19 03:48:55;;;;;;;;;;;17.20;62.80;;;;;;6246510;22;19914;-78
2023/06/19 03:51:21;;;;;;;;;;;17.20;62.70;;;;;;6244869;23;20352;-84
2023/06/19 03:53:47;;;;;;;;;;;17.30;62.80;;;;;;6245060;23;19908;-80
2023/06/19 03:56:13;;;;;;;;;;;17.40;62.80;;;;;;6219320;23;19922;-84
2023/06/19 03:58:39;;;;;;;;;;;17.30;63.00;;;;;;6245024;23;19935;-79
2023/06/19 04:01:05;;;;;;;;;;;17.40;62.90;;;;;;6219304;23;19999;-79
2023/06/19 04:03:31;;;;;;;;;;;17.40;62.90;;;;;;6219549;23;19907;-84
2023/06/19 04:05:57;;;;;;;;;;;17.40;63.00;;;;;;6219481;23;20288;-85
2023/06/19 04:08:25;;;;;;;;;;;17.40;63.20;;;;;;6219421;23;19908;-83
2023/06/19 04:10:51;;;;;;;;;;;17.30;63.30;;;;;;6244871;22;19915;-79
2023/06/19 04:13:17;;;;;;;;;;;17.30;62.60;;;;;;6219593;23;19908;-81
2023/06/19 04:15:44;;;;;;;;;;;17.40;63.20;;;;;;6244963;22;19970;-79
2023/06/19 04:18:10;;;;;;;;;;;17.40;63.10;;;;;;6219734;23;19907;-84
2023/06/19 04:20:36;;;;;;;;;;;17.50;63.00;;;;;;6244486;23;19998;-85
2023/06/19 04:23:02;;;;;;;;;;;17.50;63.30;;;;;;6219599;23;19911;-78
2023/06/19 04:25:28;;;;;;;;;;;17.60;63.20;;;;;;6218980;23;19922;-80
2023/06/19 04:27:54;;;;;;;;;;;17.60;63.40;;;;;;6244839;23;19912;-78
2023/06/19 04:33:05;;;;;;;;;;;17.70;63.50;;;;;;6244876;23;19930;-84
2023/06/19 04:35:32;;;;;;;;;;;17.70;63.20;;;;;;6219765;23;19915;-79
2023/06/19 04:38:00;;;;;;;;;;;17.80;62.50;;;;;;6247225;22;19982;-83
2023/06/19 04:40:27;;;;;;;;;;;17.80;64.00;;;;;;6248070;22;19951;-84
2023/06/19 04:42:53;;;;;;;;;;;17.90;63.20;;;;;;6246623;23;19921;-78
2023/06/19 04:45:20;;;;;;;;;;;17.90;63.00;;;;;;6247945;22;19958;-83
2023/06/19 04:47:45;;;;;;;;;;;18.00;63.10;;;;;;6246726;23;19966;-82
2023/06/19 04:50:11;;;;;;;;;;;18.00;62.90;;;;;;6247763;22;19925;-83
2023/06/19 04:52:37;;;;;;;;;;;18.10;62.80;;;;;;6246367;23;20343;-83
2023/06/19 04:55:09;;;;;;;;;;;18.10;62.80;;;;;;6248051;22;19915;-79
2023/06/19 04:57:36;;;;;;;;;;;18.20;62.70;;;;;;6246569;23;19907;-82
2023/06/19 05:00:06;;;;;;;;;;;18.20;63.10;;;;;;6246455;23;19994;-81
2023/06/19 05:02:33;;;;;;;;;;;18.20;63.20;;;;;;6246484;23;19966;-79
2023/06/19 05:05:03;;;;;;;;;;;18.30;62.90;;;;;;6245941;22;19916;-77
2023/06/19 05:07:31;;;;;;;;;;;18.30;63.60;;;;;;6245690;23;19911;-78
2023/06/19 05:09:57;;;;;;;;;;;18.40;64.10;;;;;;6221078;23;20150;-78
2023/06/19 05:12:23;;;;;;;;;;;18.50;64.10;;;;;;6245812;22;19907;-80
2023/06/19 05:14:49;;;;;;;;;;;18.50;63.90;;;;;;6246413;22;20218;-81
2023/06/19 05:17:15;;;;;;;;;;;18.60;64.20;;;;;;6245549;23;19939;-78
2023/06/19 05:19:41;;;;;;;;;;;18.70;64.40;;;;;;6246111;23;19915;-81
2023/06/19 05:22:07;;;;;;;;;;;18.70;64.00;;;;;;6245417;23;19982;-79
2023/06/19 05:24:33;;;;;;;;;;;18.80;63.80;;;;;;6220612;23;20380;-77
2023/06/19 05:26:59;;;;;;;;;;;18.90;64.40;;;;;;6245463;23;19940;-81
2023/06/19 05:29:25;;;;;;;;;;;19.10;63.10;;;;;;6246122;22;19916;-77
2023/06/19 05:31:51;;;;;;;;;;;19.20;62.80;;;;;;6245219;23;20368;-77
2023/06/19 05:34:17;;;;;;;;;;;19.20;62.30;;;;;;6245971;23;20307;-80
2023/06/19 05:36:46;;;;;;;;;;;19.30;61.60;;;;;;6245447;23;19911;-77
2023/06/19 05:39:13;;;;;;;;;;;19.40;61.40;;;;;;6245725;23;19966;-78
2023/06/19 05:41:39;;;;;;;;;;;19.50;61.80;;;;;;6246735;22;19908;-80
2023/06/19 05:44:05;;;;;;;;;;;19.60;61.20;;;;;;6245628;22;19915;-77
2023/06/19 05:46:31;;;;;;;;;;;19.70;62.30;;;;;;6245040;23;19912;-77
2023/06/19 05:48:57;;;;;;;;;;;19.80;60.90;;;;;;6245215;23;19983;-80
2023/06/19 05:51:23;;;;;;;;;;;19.90;60.60;;;;;;6219779;23;20333;-79
2023/06/19 05:53:49;;;;;;;;;;;20.00;60.10;;;;;;6220272;23;19914;-77
2023/06/19 05:56:15;;;;;;;;;;;20.10;60.00;;;;;;6246511;22;19945;-80
2023/06/19 05:58:41;;;;;;;;;;;20.20;59.70;;;;;;6245312;23;19935;-79
2023/06/19 06:01:08;;;;;;;;;;;20.30;59.70;;;;;;6245129;22;19922;-79
2023/06/19 06:03:33;;;;;;;;;;;20.40;58.80;;;;;;6219943;23;19930;-80
2023/06/19 06:06:02;;;;;;;;;;;20.50;59.40;;;;;;6219773;23;20332;-77
2023/06/19 06:08:32;;;;;;;;;;;20.60;59.10;;;;;;6245548;23;19930;-79
2023/06/19 06:10:58;;;;;;;;;;;20.70;58.70;;;;;;6245184;22;20383;-79
2023/06/19 06:13:24;;;;;;;;;;;20.80;58.00;;;;;;6246912;22;19914;-76
2023/06/19 06:15:50;;;;;;;;;;;20.90;58.20;;;;;;6270523;22;19915;-77
2023/06/19 06:18:16;;;;;;;;;;;21.00;57.70;;;;;;6245704;23;19911;-79
2023/06/19 06:20:42;;;;;;;;;;;21.20;57.60;;;;;;6245056;22;19958;-77
2023/06/19 06:23:08;;;;;;;;;;;21.30;57.40;;;;;;6245209;23;19914;-77
2023/06/19 06:25:34;;;;;;;;;;;21.40;57.10;;;;;;6244803;23;19911;-78
2023/06/19 06:28:00;;;;;;;;;;;21.50;57.10;;;;;;6245460;22;19916;-77
2023/06/19 06:30:28;;;;;;;;;;;21.60;56.70;;;;;;6244793;23;19969;-79
2023/06/19 06:32:54;;;;;;;;;;;21.80;56.60;;;;;;6245389;23;19942;-79
2023/06/19 06:35:20;;;;;;;;;;;21.90;56.40;;;;;;6219462;23;19907;-78
2023/06/19 06:37:46;;;;;;;;;;;22.00;55.50;;;;;;6245350;22;19938;-78
2023/06/19 06:40:12;;;;;;;;;;;22.20;55.90;;;;;;6244693;23;19962;-79
2023/06/19 06:42:38;;;;;;;;;;;22.40;55.70;;;;;;6244948;22;20280;-79
2023/06/19 06:45:06;;;;;;;;;;;22.60;55.40;;;;;;6244847;23;20329;-80
2023/06/19 06:47:32;;;;;;;;;;;22.70;55.00;;;;;;6244969;22;19919;-79
2023/06/19 06:49:58;;;;;;;;;;;22.80;55.00;;;;;;6245105;23;19953;-79
2023/06/19 06:52:24;;;;;;;;;;;22.90;55.00;;;;;;6244595;23;19915;-80
2023/06/19 06:54:50;;;;;;;;;;;23.00;54.80;;;;;;6244990;23;20296;-80
2023/06/19 06:57:16;;;;;;;;;;;23.10;54.70;;;;;;6219381;23;19923;-81
2023/06/19 06:59:42;;;;;;;;;;;23.10;54.40;;;;;;6219670;23;20011;-79
2023/06/19 07:02:08;;;;;;;;;;;23.30;54.40;;;;;;6219067;23;19994;-78
2023/06/19 07:04:34;;;;;;;;;;;23.40;53.40;;;;;;6219570;23;19958;-77
2023/06/19 07:07:00;;;;;;;;;;;23.60;52.90;;;;;;6246017;22;19934;-79
2023/06/19 07:09:35;;;;;;;;;;;23.70;52.50;;;;;;6245043;23;20405;-79
2023/06/19 07:12:04;;;;;;;;;;;24.00;52.20;;;;;;6246034;22;19912;-78
2023/06/19 07:14:30;;;;;;;;;;;24.10;51.80;;;;;;6220076;23;19933;-80
2023/06/19 07:16:56;;;;;;;;;;;24.30;51.20;;;;;;6244322;22;19918;-79
2023/06/19 07:19:22;;;;;;;;;;;24.40;51.30;;;;;;6219508;23;19911;-79
2023/06/19 07:21:50;;;;;;;;;;;24.50;50.90;;;;;;6244255;23;19926;-78
2023/06/19 07:24:16;;;;;;;;;;;24.50;49.60;;;;;;6219613;23;20155;-78
2023/06/19 07:26:42;;;;;;;;;;;24.60;49.10;;;;;;6219100;23;19965;-78
2023/06/19 07:29:08;;;;;;;;;;;24.70;48.40;;;;;;6219434;23;20279;-79
2023/06/19 07:31:34;;;;;;;;;;;24.80;48.30;;;;;;6244011;23;19917;-80
2023/06/19 07:34:00;;;;;;;;;;;24.90;47.50;;;;;;6219506;23;19957;-78
2023/06/19 07:36:25;;;;;;;;;;;25.00;46.90;;;;;;6244325;22;19911;-83
2023/06/19 07:38:52;;;;;;;;;;;25.10;44.60;;;;;;6244630;23;20333;-78
2023/06/19 07:41:17;;;;;;;;;;;25.10;43.10;;;;;;6244589;23;19920;-81
2023/06/19 07:43:44;;;;;;;;;;;25.30;43.40;;;;;;6219141;23;20233;-83
2023/06/19 07:46:10;;;;;;;;;;;25.40;43.30;;;;;;6250132;22;19918;-79
2023/06/19 07:48:36;;;;;;;;;;;25.50;43.70;;;;;;6249901;22;19911;-79
2023/06/19 07:51:02;;;;;;;;;;;25.60;44.10;;;;;;6249283;22;19914;-81
2023/06/19 07:53:28;;;;;;;;;;;25.70;43.40;;;;;;6276716;22;19957;-81
2023/06/19 07:55:54;;;;;;;;;;;25.90;42.30;;;;;;6249257;22;20199;-81
2023/06/19 07:58:20;;;;;;;;;;;26.10;43.30;;;;;;6224606;22;20275;-81
2023/06/19 08:00:46;;;;;;;;;;;26.20;42.90;;;;;;6249399;22;19986;-81
2023/06/19 08:03:12;;;;;;;;;;;26.30;41.90;;;;;;6277089;22;19936;-79
2023/06/19 08:05:38;;;;;;;;;;;26.40;42.20;;;;;;6249284;22;19911;-79
2023/06/19 08:08:04;;;;;;;;;;;26.50;41.80;;;;;;6224692;22;19990;-80
2023/06/19 08:10:30;;;;;;;;;;;26.70;41.10;;;;;;6224109;22;19950;-80
2023/06/19 08:12:55;;;;;;;;;;;26.70;42.00;;;;;;6225162;22;20336;-80
2023/06/19 08:15:21;;;;;;;;;;;26.80;40.60;;;;;;6278520;22;19911;-80
2023/06/19 08:17:47;;;;;;;;;;;26.80;40.40;;;;;;6252045;22;20360;-79
2023/06/19 08:20:13;;;;;;;;;;;26.80;38.80;;;;;;6251496;22;19943;-82
2023/06/19 08:22:39;;;;;;;;;;;26.90;39.00;;;;;;6251887;22;19960;-80
2023/06/19 08:25:05;;;;;;;;;;;26.90;38.70;;;;;;6251589;22;19950;-80
2023/06/19 08:27:31;;;;;;;;;;;27.00;39.00;;;;;;6251629;22;19911;-79
2023/06/19 08:29:57;;;;;;;;;;;27.20;39.60;;;;;;6278741;22;19957;-78
2023/06/19 08:32:23;;;;;;;;;;;27.40;39.40;;;;;;6278142;22;20440;-81
2023/06/19 08:34:49;;;;;;;;;;;27.50;38.10;;;;;;6251547;22;19986;-83
2023/06/19 08:37:15;;;;;;;;;;;27.60;37.80;;;;;;6251185;22;19911;-81
2023/06/19 08:39:41;;;;;;;;;;;27.70;37.50;;;;;;6226462;22;20237;-80
2023/06/19 08:42:08;;;;;;;;;;;27.80;36.90;;;;;;6250920;22;19911;-82
2023/06/19 08:44:35;;;;;;;;;;;27.80;36.10;;;;;;6251535;22;19918;-85
2023/06/19 08:47:19;;;;;;;;;;;27.80;36.50;;;;;;6250864;22;20400;-84
2023/06/19 08:49:46;;;;;;;;;;;27.90;36.40;;;;;;6251632;22;19914;-82
2023/06/19 08:52:12;;;;;;;;;;;27.90;36.30;;;;;;6251074;22;19980;-82
2023/06/19 08:54:43;;;;;;;;;;;28.10;37.00;;;;;;6278477;22;19907;-81
2023/06/19 08:57:10;;;;;;;;;;;28.10;36.80;;;;;;6226652;22;20240;-81
2023/06/19 08:59:36;;;;;;;;;;;28.10;36.60;;;;;;6251677;22;19930;-82
2023/06/19 09:02:02;;;;;;;;;;;28.30;37.40;;;;;;6250844;22;20352;-81
2023/06/19 09:04:30;;;;;;;;;;;28.40;37.30;;;;;;6278401;22;19907;-84
2023/06/19 09:07:15;;;;;;;;;;;28.50;36.50;;;;;;6227121;22;19938;-87
2023/06/19 09:09:46;;;;;;;;;;;28.50;36.00;;;;;;6278684;22;19907;-84
2023/06/19 09:12:13;;;;;;;;;;;28.50;36.30;;;;;;6226422;22;20284;-81
2023/06/19 09:15:00;;;;;;;;;;;28.50;35.60;;;;;;6226064;22;20240;-81
2023/06/19 09:17:26;;;;;;;;;;;28.70;35.60;;;;;;6251071;22;19915;-84
2023/06/19 09:19:55;;;;;;;;;;;28.80;34.80;;;;;;6278464;22;19907;-80
2023/06/19 09:22:22;;;;;;;;;;;28.80;34.80;;;;;;6251028;22;19915;-80
2023/06/19 09:24:48;;;;;;;;;;;28.90;34.50;;;;;;6251423;22;20237;-81
2023/06/19 09:27:18;;;;;;;;;;;28.90;35.10;;;;;;6226071;22;19915;-83
2023/06/19 09:29:46;;;;;;;;;;;29.00;34.90;;;;;;6278627;22;19929;-84
2023/06/19 09:32:31;;;;;;;;;;;29.10;34.80;;;;;;6251638;22;19947;-86
2023/06/19 09:35:00;;;;;;;;;;;29.40;34.60;;;;;;6251824;22;19907;-87
2023/06/19 09:37:28;;;;;;;;;;;29.60;34.40;;;;;;6251460;22;20360;-85
2023/06/19 09:40:13;;;;;;;;;;;29.80;33.50;;;;;;6250996;22;19961;-83
2023/06/19 09:42:59;;;;;;;;;;;30.00;33.00;;;;;;6278725;22;20220;-80
2023/06/19 09:45:27;;;;;;;;;;;30.30;32.70;;;;;;6250756;22;19918;-86
2023/06/19 09:47:54;;;;;;;;;;;30.80;32.40;;;;;;6246046;23;19938;-79
2023/06/19 09:50:22;;;;;;;;;;;31.40;32.10;;;;;;6220286;23;20253;-81
2023/06/19 09:52:51;;;;;;;;;;;32.10;31.50;;;;;;6246089;23;19915;-81
2023/06/19 09:55:18;;;;;;;;;;;32.80;30.10;;;;;;6247009;22;20361;-83
2023/06/19 09:57:44;;;;;;;;;;;33.80;29.20;;;;;;6246423;22;20214;-85
2023/06/19 10:00:18;;;;;;;;;;;34.10;28.30;;;;;;6220290;23;19919;-81
2023/06/19 10:02:46;;;;;;;;;;;34.70;27.50;;;;;;6248025;22;19994;-85
2023/06/19 10:05:13;;;;;;;;;;;35.20;27.40;;;;;;6220081;23;20317;-89
2023/06/19 10:07:42;;;;;;;;;;;35.30;26.90;;;;;;6246571;23;19922;-84
2023/06/19 10:10:12;;;;;;;;;;;35.70;26.60;;;;;;6245776;23;19950;-87
2023/06/19 10:12:57;;;;;;;;;;;36.20;26.20;;;;;;6246178;23;19926;-88
2023/06/19 10:15:28;;;;;;;;;;;36.60;24.10;;;;;;6245360;23;20372;-83
2023/06/19 10:18:31;;;;;;;;;;;36.60;24.60;;;;;;6245791;22;20241;-80
2023/06/19 10:20:57;;;;;;;;;;;37.30;24.20;;;;;;6246842;23;19907;-81
2023/06/19 10:23:26;;;;;;;;;;;37.70;23.20;;;;;;6219927;23;19915;-85
2023/06/19 10:26:15;;;;;;;;;;;37.80;23.10;;;;;;6245172;22;19907;-82
2023/06/19 10:28:46;;;;;;;;;;;38.30;23.10;;;;;;6245507;23;19947;-82
2023/06/19 10:31:12;;;;;;;;;;;39.10;23.20;;;;;;6244860;23;19908;-80
2023/06/19 10:33:41;;;;;;;;;;;39.60;21.70;;;;;;6219847;23;20273;-79
2023/06/19 10:36:26;;;;;;;;;;;39.90;22.30;;;;;;6219536;23;19941;-81
2023/06/19 10:38:53;;;;;;;;;;;40.20;22.00;;;;;;6245049;23;19907;-81
2023/06/19 10:41:21;;;;;;;;;;;40.80;21.00;;;;;;6244959;22;19915;-82
2023/06/19 10:44:08;;;;;;;;;;;41.50;20.70;;;;;;6219605;23;19908;-81
2023/06/19 10:46:35;;;;;;;;;;;41.80;20.90;;;;;;6219487;23;19922;-79
2023/06/19 10:49:04;;;;;;;;;;;42.20;20.50;;;;;;6245188;23;19914;-80
2023/06/19 10:51:31;;;;;;;;;;;42.50;19.70;;;;;;6244660;23;19915;-80
2023/06/19 10:53:57;;;;;;;;;;;42.80;19.30;;;;;;6219641;23;19908;-80
2023/06/19 10:56:24;;;;;;;;;;;42.80;18.40;;;;;;6244860;22;20404;-80
2023/06/19 10:59:09;;;;;;;;;;;43.30;18.70;;;;;;6245006;23;19908;-78
2023/06/19 11:01:38;;;;;;;;;;;43.40;18.00;;;;;;6244572;23;20237;-78
2023/06/19 11:04:05;;;;;;;;;;;43.90;17.40;;;;;;6244937;23;19911;-79
2023/06/19 11:06:32;;;;;;;;;;;44.60;17.00;;;;;;6244458;22;19915;-81
2023/06/19 11:09:00;;;;;;;;;;;45.20;17.00;;;;;;6245468;23;19914;-79
2023/06/19 11:11:45;;;;;;;;;;;45.20;16.30;;;;;;6244535;23;20322;-79
2023/06/19 11:14:13;;;;;;;;;;;45.80;16.80;;;;;;6244880;23;19915;-81
2023/06/19 11:16:41;;;;;;;;;;;45.70;16.30;;;;;;6244253;23;19915;-79
2023/06/19 11:19:08;;;;;;;;;;;45.50;15.80;;;;;;6244883;23;19908;-79
2023/06/19 11:21:38;;;;;;;;;;;46.20;16.10;;;;;;6244190;23;19916;-80
2023/06/19 11:24:06;;;;;;;;;;;46.70;15.50;;;;;;6245226;22;20410;-79
2023/06/19 11:26:50;;;;;;;;;;;47.50;15.40;;;;;;6244383;22;19915;-80
2023/06/19 11:29:36;;;;;;;;;;;47.50;14.90;;;;;;6244951;22;19990;-79
2023/06/19 11:32:24;;;;;;;;;;;47.20;15.50;;;;;;6244369;22;19976;-79
2023/06/19 11:35:11;;;;;;;;;;;47.50;15.20;;;;;;6245424;22;19907;-80
2023/06/19 11:37:40;;;;;;;;;;;47.70;15.20;;;;;;6098961;23;19917;-78
2023/06/19 11:42:52;;;;;;;;;;;48.10;14.10;;;;;;6123766;23;20244;-79
2023/06/19 11:45:18;;;;;;;;;;;49.00;14.20;;;;;;6123083;23;20426;-80
2023/06/19 11:47:46;;;;;;;;;;;49.60;14.00;;;;;;6123300;23;19917;-80
2023/06/19 11:50:13;;;;;;;;;;;49.40;14.10;;;;;;6123199;23;19913;-80
2023/06/19 11:52:39;;;;;;;;;;;49.10;14.20;;;;;;6123373;23;19913;-80
2023/06/19 11:55:06;;;;;;;;;;;48.80;14.00;;;;;;6123461;23;19991;-80
2023/06/19 11:57:33;;;;;;;;;;;49.00;14.60;;;;;;6123366;23;19913;-80
2023/06/19 11:59:59;;;;;;;;;;;49.80;14.10;;;;;;6123676;23;19937;-80
2023/06/19 12:02:24;;;;;;;;;;;50.20;14.10;;;;;;6122884;23;20105;-80
2023/06/19 12:04:50;;;;;;;;;;;50.00;13.90;;;;;;6123682;23;19991;-79
2023/06/19 12:07:16;;;;;;;;;;;49.80;13.20;;;;;;6122805;23;19944;-80
2023/06/19 12:09:43;;;;;;;;;;;49.10;13.50;;;;;;6123610;23;20342;-80
2023/06/19 12:12:09;;;;;;;;;;;49.20;13.80;;;;;;6122926;23;20281;-80
2023/06/19 12:14:35;;;;;;;;;;;49.60;14.00;;;;;;6178397;23;19919;-80
2023/06/19 12:17:01;;;;;;;;;;;50.00;13.90;;;;;;6218556;23;20270;-79
2023/06/19 12:19:27;;;;;;;;;;;50.20;14.30;;;;;;6219329;23;19912;-80
2023/06/19 12:21:53;;;;;;;;;;;49.80;13.40;;;;;;6243734;23;19923;-81
2023/06/19 12:24:19;;;;;;;;;;;50.00;13.50;;;;;;6244410;23;19912;-79
2023/06/19 12:26:45;;;;;;;;;;;50.40;13.80;;;;;;6244031;23;20323;-80
2023/06/19 12:29:11;;;;;;;;;;;50.40;13.20;;;;;;6246059;22;19916;-79
2023/06/19 12:31:37;;;;;;;;;;;50.50;12.40;;;;;;6243891;23;19947;-79
2023/06/19 12:34:05;;;;;;;;;;;50.20;13.00;;;;;;6219136;23;19916;-79
2023/06/19 12:36:31;;;;;;;;;;;50.60;12.70;;;;;;6243741;22;19911;-81
2023/06/19 12:38:59;;;;;;;;;;;50.40;12.20;;;;;;6219258;23;19912;-79
2023/06/19 12:41:25;;;;;;;;;;;50.10;12.90;;;;;;6244099;22;19912;-80
2023/06/19 12:43:50;;;;;;;;;;;49.40;13.90;;;;;;6244128;23;19919;-80
2023/06/19 12:46:16;;;;;;;;;;;49.10;14.50;;;;;;6251348;22;19938;-81
2023/06/19 12:48:42;;;;;;;;;;;48.80;14.00;;;;;;6224027;22;19990;-80
2023/06/19 12:51:08;;;;;;;;;;;48.30;13.90;;;;;;6275847;22;20238;-80
2023/06/19 12:53:34;;;;;;;;;;;48.10;14.60;;;;;;6224136;22;19986;-79
2023/06/19 12:56:00;;;;;;;;;;;47.70;15.00;;;;;;6248885;22;20242;-81
2023/06/19 12:58:27;;;;;;;;;;;47.20;15.80;;;;;;6249857;22;19918;-80
2023/06/19 13:00:53;;;;;;;;;;;46.30;17.00;;;;;;6251206;22;19969;-80
2023/06/19 13:03:19;;;;;;;;;;;45.10;17.30;;;;;;6251461;22;20014;-80
2023/06/19 13:05:48;;;;;;;;;;;44.30;16.90;;;;;;6250750;22;19910;-80
2023/06/19 13:08:15;;;;;;;;;;;43.60;17.70;;;;;;6225956;22;20229;-81
2023/06/19 13:10:41;;;;;;;;;;;43.20;18.70;;;;;;6225193;22;20267;-80
2023/06/19 13:13:07;;;;;;;;;;;42.80;18.50;;;;;;6226003;22;19938;-83
2023/06/19 13:15:33;;;;;;;;;;;42.30;19.50;;;;;;6225301;22;19915;-80
2023/06/19 13:17:59;;;;;;;;;;;41.90;19.70;;;;;;6226186;22;19912;-81
2023/06/19 13:20:26;;;;;;;;;;;41.40;19.80;;;;;;6250665;22;19957;-78
2023/06/19 13:22:54;;;;;;;;;;;41.10;19.80;;;;;;6278480;22;20280;-79
2023/06/19 13:25:20;;;;;;;;;;;40.90;20.60;;;;;;6250275;22;19908;-81
2023/06/19 13:27:46;;;;;;;;;;;40.70;20.50;;;;;;6251078;22;19941;-81
2023/06/19 13:30:12;;;;;;;;;;;40.30;21.40;;;;;;6250632;22;19985;-80
2023/06/19 13:32:38;;;;;;;;;;;39.70;21.10;;;;;;6278348;22;19911;-80
2023/06/19 13:35:05;;;;;;;;;;;39.40;21.40;;;;;;6250795;22;19911;-79
2023/06/19 13:37:34;;;;;;;;;;;39.20;22.10;;;;;;6225583;22;19911;-81
2023/06/19 13:40:00;;;;;;;;;;;39.30;22.40;;;;;;6251132;22;19957;-81
2023/06/19 13:42:29;;;;;;;;;;;39.10;23.00;;;;;;6250475;22;20279;-81
2023/06/19 13:44:55;;;;;;;;;;;38.90;22.70;;;;;;6277821;22;20235;-81
2023/06/19 13:47:21;;;;;;;;;;;38.90;22.60;;;;;;6250215;22;19993;-79
2023/06/19 13:49:46;;;;;;;;;;;38.80;22.80;;;;;;6250823;22;20321;-82
2023/06/19 13:52:12;;;;;;;;;;;38.50;22.70;;;;;;6250449;22;19998;-82
2023/06/19 13:54:38;;;;;;;;;;;38.60;22.60;;;;;;6250863;22;19953;-80
2023/06/19 13:57:04;;;;;;;;;;;38.50;22.90;;;;;;6250013;22;20327;-81
2023/06/19 13:59:30;;;;;;;;;;;38.40;22.70;;;;;;6278313;22;19942;-82
2023/06/19 14:01:56;;;;;;;;;;;38.30;23.60;;;;;;6225001;22;19913;-82
2023/06/19 14:04:22;;;;;;;;;;;38.00;23.80;;;;;;6250710;22;19922;-84
2023/06/19 14:06:48;;;;;;;;;;;37.70;24.00;;;;;;6250178;22;19953;-83
2023/06/19 14:09:14;;;;;;;;;;;37.60;24.40;;;;;;6250514;22;19987;-79
2023/06/19 14:11:40;;;;;;;;;;;37.60;24.20;;;;;;6275119;22;19907;-79
2023/06/19 14:14:06;;;;;;;;;;;37.60;24.50;;;;;;6250737;22;19915;-80
2023/06/19 14:16:32;;;;;;;;;;;37.60;24.10;;;;;;6250230;22;19907;-81
2023/06/19 14:19:17;;;;;;;;;;;37.60;24.20;;;;;;6250395;22;19922;-84
2023/06/19 14:21:43;;;;;;;;;;;37.60;24.60;;;;;;6265936;22;19911;-81
2023/06/19 14:24:09;;;;;;;;;;;37.50;24.80;;;;;;6250227;22;20357;-80
2023/06/19 14:26:35;;;;;;;;;;;37.50;25.30;;;;;;6249601;22;19907;-81
2023/06/19 14:29:01;;;;;;;;;;;37.60;24.50;;;;;;6224719;22;19915;-81